createdAt,value
2018-03-21T07:29:20.410Z,94437.53
2018-03-21T07:31:46.912Z,94462.03
2018-03-21T07:34:13.394Z,94473.81
2018-03-21T07:36:39.914Z,94468.37
2018-03-21T07:39:06.476Z,94440.65
2018-03-21T07:41:32.953Z,94429.14
2018-03-21T07:46:25.795Z,94460.78
2018-03-21T07:48:52.263Z,94447.14
2018-03-21T07:51:18.772Z,94398.94
2018-03-21T07:53:45.300Z,94367.72
2018-03-21T07:56:11.861Z,94389.17
2018-03-21T07:58:38.356Z,94395.94
2018-03-21T08:01:04.853Z,94407.20
2018-03-21T08:03:31.418Z,94405.19
2018-03-21T08:05:57.988Z,94395.47
2018-03-21T08:08:24.474Z,94384.09
2018-03-21T08:10:50.977Z,94380.59
2018-03-21T08:13:17.513Z,94362.70
2018-03-21T08:15:44.154Z,94386.41
2018-03-21T08:18:10.672Z,94394.45
2018-03-21T08:20:37.395Z,94390.66
2018-03-21T08:23:03.897Z,94393.83
2018-03-21T08:25:30.389Z,94391.46
2018-03-21T08:27:57.045Z,94391.09
2018-03-21T10:24:04.421Z,94348.41
2018-03-21T10:26:31.021Z,94343.63
2018-03-21T10:28:58.043Z,94351.60
2018-03-21T10:31:25.256Z,94362.88
2018-03-21T10:33:52.216Z,94356.83
2018-03-21T10:36:18.825Z,94347.05
2018-03-21T10:38:45.507Z,94348.59
2018-03-21T10:41:12.210Z,94339.91
2018-03-21T10:43:38.827Z,94319.42
2018-03-21T10:46:05.404Z,94327.84
2018-03-21T10:48:32.165Z,94344.97
2018-03-21T10:50:58.666Z,94362.42
2018-03-21T10:53:25.184Z,94352.25
2018-03-21T10:55:51.690Z,94356.34
2018-03-21T10:58:18.261Z,94353.53
2018-03-21T11:00:44.800Z,94357.91
2018-03-21T11:03:11.377Z,94362.05
2018-03-21T11:05:37.891Z,94347.36
2018-03-21T11:08:04.505Z,94345.17
2018-03-21T11:10:31.000Z,94350.12
2018-03-21T11:12:57.652Z,94359.81
2018-03-21T11:15:25.620Z,94354.87
2018-03-21T11:17:50.760Z,94357.05
2018-03-21T11:20:17.533Z,94358.95
2018-03-21T11:22:44.088Z,94359.77
2018-03-21T11:25:10.645Z,94364.13
2018-03-21T11:27:37.195Z,94358.26
2018-03-21T11:30:03.921Z,94357.91
2018-03-21T11:32:30.455Z,94368.43
2018-03-21T11:34:58.222Z,94371.20
2018-03-21T11:37:24.856Z,94371.75
2018-03-21T11:39:51.372Z,94369.56
2018-03-21T11:42:17.858Z,94382.63
2018-03-21T11:44:44.353Z,94374.11
2018-03-21T11:47:10.979Z,94379.92
2018-03-21T11:49:37.472Z,94367.56
2018-03-21T11:52:03.976Z,94370.22
2018-03-21T11:54:30.537Z,94373.27
2018-03-21T11:56:57.020Z,94374.99
2018-03-21T11:59:23.569Z,94369.36
2018-03-21T12:01:50.049Z,94373.13
2018-03-21T12:04:16.584Z,94377.13
2018-03-21T12:06:43.127Z,94374.61
2018-03-21T12:09:09.762Z,94378.89
2018-03-21T12:11:36.538Z,94366.42
2018-03-21T12:14:03.133Z,94377.17
2018-03-21T12:16:29.801Z,94362.66
2018-03-21T12:18:56.335Z,94365.14
2018-03-21T12:21:22.912Z,94364.81
2018-03-21T12:23:49.407Z,94369.56
2018-03-21T12:26:15.970Z,94359.16
2018-03-21T12:28:42.479Z,94359.63
2018-03-21T12:31:09.009Z,94370.52
2018-03-21T12:33:35.628Z,94367.95
2018-03-21T12:36:02.115Z,94378.55
2018-03-21T12:38:28.659Z,94380.79
2018-03-21T12:40:55.132Z,94389.59
2018-03-21T12:43:21.641Z,94391.55
2018-03-21T12:45:48.295Z,94397.63
2018-03-21T12:48:14.870Z,94395.44
2018-03-21T12:50:41.459Z,94389.78
2018-03-21T12:53:07.980Z,94401.07
2018-03-21T12:55:34.778Z,94382.98
2018-03-21T12:58:02.006Z,94422.03
2018-03-21T13:00:28.822Z,94422.98
2018-03-21T13:03:03.542Z,94439.17
2018-03-21T13:05:30.311Z,94446.79
2018-03-21T13:07:57.285Z,94436.52
2018-03-21T13:10:24.089Z,94442.59
2018-03-21T13:12:51.068Z,94470.52
2018-03-21T13:15:17.981Z,94469.14
2018-03-21T13:17:45.678Z,94473.48
2018-03-21T13:20:13.016Z,94471.85
2018-03-21T13:22:41.102Z,94478.03
2018-03-21T13:25:07.614Z,94477.75
2018-03-21T13:27:34.334Z,94508.40
2018-03-21T13:30:01.732Z,94511.34
2018-03-21T13:32:28.466Z,94519.58
2018-03-21T13:34:55.321Z,94529.55
2018-03-21T13:37:21.915Z,94522.41
2018-03-21T13:39:49.680Z,94532.52
2018-03-21T13:42:16.202Z,94531.33
2018-03-21T13:44:42.823Z,94531.41
2018-03-21T13:47:09.422Z,94533.38
2018-03-21T13:49:36.463Z,94522.88
2018-03-21T13:52:03.141Z,94530.13
2018-03-21T13:54:29.666Z,94527.11
2018-03-21T13:56:56.507Z,94538.13
2018-03-21T13:59:23.105Z,94542.14
2018-03-21T14:01:49.629Z,94542.97
2018-03-21T14:04:17.216Z,94554.02
2018-03-21T14:06:44.222Z,94563.92
2018-03-21T14:09:10.828Z,94572.57
2018-03-21T14:11:37.526Z,94581.61
2018-03-21T14:14:05.560Z,94559.84
2018-03-21T14:16:33.402Z,94561.31
2018-03-21T14:19:00.218Z,94556.88
2018-03-21T14:21:29.113Z,94573.05
2018-03-21T14:23:55.783Z,94592.54
2018-03-21T14:26:23.364Z,94590.41
2018-03-21T14:28:50.055Z,94586.69
2018-03-21T14:31:17.467Z,94573.83
